Time;durP1;ratioP1;P1;durP2;ratioP2;P2;SDS_P1;SDS_P2;PMS_P1;PMS_P2;Temp;Humidity;BMP_temperature;BMP_pressure;BME280_temperature;BME280_humidity;BME280_pressure;Samples;Min_cycle;Max_cycle;Signal;HPM_P1;HPM_P2
2023/05/25 00:02:14;;;;;;;12.95;6.60;;;;;;;9.86;88.12;102498.22;4987109;28;20090;-96
2023/05/25 00:04:47;;;;;;;11.85;6.80;;;;;;;9.87;89.64;102495.72;5001186;28;20031;-96
2023/05/25 00:07:17;;;;;;;13.20;6.40;;;;;;;9.89;88.62;102496.72;4987057;28;20383;-96
2023/05/25 00:09:50;;;;;;;13.38;6.53;;;;;;;9.88;88.50;102487.09;4986782;28;20027;-96
2023/05/25 00:12:28;;;;;;;15.68;6.00;;;;;;;9.89;88.41;102494.09;4970334;28;20051;-96
2023/05/25 00:15:12;;;;;;;11.95;6.53;;;;;;;9.90;87.99;102493.28;4996203;28;20014;-96
2023/05/25 00:17:57;;;;;;;12.60;5.97;;;;;;;9.89;87.82;102491.50;4990455;28;20046;-96
2023/05/25 00:20:23;;;;;;;12.95;5.82;;;;;;;9.87;87.96;102490.50;5005296;28;20027;-96
2023/05/25 00:22:54;;;;;;;12.90;6.35;;;;;;;9.89;88.34;102493.19;4984267;28;20043;-96
2023/05/25 00:25:38;;;;;;;15.52;6.57;;;;;;;9.85;87.93;102488.66;4986563;28;20035;-96
2023/05/25 00:28:11;;;;;;;12.63;6.15;;;;;;;9.83;88.14;102493.75;4999070;28;20058;-96
2023/05/25 00:30:42;;;;;;;14.77;6.90;;;;;;;9.82;87.97;102492.00;4993988;28;20026;-96
2023/05/25 00:33:09;;;;;;;12.80;6.38;;;;;;;9.77;88.06;102496.03;4982252;28;20038;-96
2023/05/25 00:35:59;;;;;;;13.93;6.40;;;;;;;9.79;87.88;102496.13;5001258;28;20019;-96
2023/05/25 00:38:45;;;;;;;11.38;6.00;;;;;;;9.77;88.31;102501.25;4992903;28;20031;-95
2023/05/25 00:41:16;;;;;;;12.10;6.13;;;;;;;9.73;87.79;102502.81;4995679;28;20038;-95
2023/05/25 00:43:54;;;;;;;12.43;5.88;;;;;;;9.72;85.06;102503.59;4992657;28;20038;-96
2023/05/25 00:46:40;;;;;;;13.85;5.72;;;;;;;9.68;86.74;102503.38;5000221;28;20655;-96
2023/05/25 00:49:36;;;;;;;11.00;5.93;;;;;;;9.67;88.79;102511.97;5000507;28;20074;-96
2023/05/25 00:52:02;;;;;;;12.80;6.00;;;;;;;9.66;88.93;102499.75;4982380;28;20023;-96
2023/05/25 00:54:56;;;;;;;10.55;5.45;;;;;;;9.68;88.19;102500.75;4997092;28;20038;-96
2023/05/25 00:57:26;;;;;;;12.10;5.70;;;;;;;9.62;88.95;102501.31;4984773;28;20114;-96
2023/05/25 00:59:54;;;;;;;11.13;5.70;;;;;;;9.60;87.99;102489.91;4982667;28;20039;-96
2023/05/25 01:02:28;;;;;;;14.30;5.70;;;;;;;9.56;88.92;102503.59;4985336;28;20247;-96
2023/05/25 01:05:03;;;;;;;11.70;5.82;;;;;;;9.56;88.24;102499.28;4984658;28;20042;-96
2023/05/25 01:07:53;;;;;;;;;;;;;;;;;;;;;
2023/05/25 01:10:23;;;;;;;11.60;5.57;;;;;;;9.53;88.38;102499.13;4977921;28;20091;-96
2023/05/25 01:13:20;;;;;;;12.00;6.10;;;;;;;9.54;88.09;102507.81;4977125;28;20034;-96
2023/05/25 01:16:01;;;;;;;;;;;;;;;;;;;;;
2023/05/25 01:18:32;;;;;;;11.27;5.35;;;;;;;9.53;88.37;102508.63;4983433;28;20086;-96
2023/05/25 01:21:11;;;;;;;11.95;5.25;;;;;;;9.55;88.25;102504.41;5003017;28;20051;-96
2023/05/25 01:23:42;;;;;;;9.70;5.38;;;;;;;9.52;88.15;102505.13;4985287;28;20117;-96
2023/05/25 01:26:14;;;;;;;10.93;5.55;;;;;;;9.52;88.07;102512.03;4983815;28;20027;-96
2023/05/25 01:28:55;;;;;;;10.98;5.43;;;;;;;9.52;87.98;102512.03;5004903;28;20011;-96
2023/05/25 01:31:54;;;;;;;14.07;5.80;;;;;;;9.50;87.56;102521.47;4994482;28;20022;-96
2023/05/25 01:34:47;;;;;;;11.73;5.55;;;;;;;9.48;85.88;102529.19;4994196;28;20045;-96
2023/05/25 01:37:30;;;;;;;11.38;5.65;;;;;;;9.44;87.73;102519.41;4995608;28;20047;-96
2023/05/25 01:40:09;;;;;;;11.73;5.68;;;;;;;9.38;87.92;102533.00;5012781;28;20030;-96
2023/05/25 01:42:37;;;;;;;10.63;5.63;;;;;;;9.33;86.99;102523.16;4995848;28;20031;-96
2023/05/25 01:45:19;;;;;;;;;;;;;;;;;;;;;
2023/05/25 01:48:30;;;;;;;;;;;;;;;;;;;;;
2023/05/25 01:54:59;;;;;;;11.55;5.43;;;;;;;9.28;88.13;102535.88;4995205;28;20050;-96
2023/05/25 01:57:39;;;;;;;12.73;5.22;;;;;;;9.22;87.51;102533.84;4967545;28;20050;-96
2023/05/25 02:00:12;;;;;;;12.18;5.80;;;;;;;9.19;88.15;102532.75;4992972;28;20030;-96
2023/05/25 02:03:02;;;;;;;;;;;;;;;;;;;;;
2023/05/25 02:05:57;;;;;;;11.93;6.03;;;;;;;9.12;88.81;102534.13;4989696;28;20054;-96
2023/05/25 02:08:34;;;;;;;13.63;5.70;;;;;;;9.08;90.15;102533.84;4985109;28;20039;-96
2023/05/25 02:11:15;;;;;;;;;;;;;;;;;;;;;
2023/05/25 02:13:52;;;;;;;11.00;5.78;;;;;;;9.08;89.18;102534.78;4985679;28;20061;-96
2023/05/25 02:16:33;;;;;;;11.52;6.18;;;;;;;9.05;88.64;102526.78;5002969;28;20027;-96
2023/05/25 02:19:15;;;;;;;11.35;5.90;;;;;;;9.04;88.79;102527.59;4989864;28;20466;-96
2023/05/25 02:21:58;;;;;;;;;;;;;;;;;;;;;
2023/05/25 02:24:39;;;;;;;12.27;6.22;;;;;;;9.00;89.04;102529.13;4986745;28;20060;-96
2023/05/25 02:27:38;;;;;;;12.07;6.32;;;;;;;8.95;90.06;102533.16;4989559;28;20039;-96
2023/05/25 02:30:13;;;;;;;13.43;5.80;;;;;;;8.94;89.37;102535.69;4991120;28;20030;-96
2023/05/25 02:33:12;;;;;;;15.13;5.90;;;;;;;8.91;89.53;102532.88;4986359;28;20049;-96
2023/05/25 02:35:41;;;;;;;12.82;6.13;;;;;;;8.88;88.91;102525.81;4974224;28;20038;-96
2023/05/25 02:38:07;;;;;;;12.05;6.32;;;;;;;8.84;88.92;102522.13;4976728;28;20034;-96
2023/05/25 02:40:37;;;;;;;12.10;6.28;;;;;;;8.83;89.12;102530.72;4992203;28;20022;-96
2023/05/25 02:43:12;;;;;;;11.80;6.32;;;;;;;8.80;88.97;102529.69;4975871;28;20030;-96
2023/05/25 02:45:50;;;;;;;12.82;6.55;;;;;;;8.76;89.00;102536.41;4987304;28;20034;-96
2023/05/25 02:48:29;;;;;;;10.10;5.82;;;;;;;8.74;88.57;102527.63;4992481;28;20026;-96
2023/05/25 02:51:09;;;;;;;;;;;;;;;;;;;;;
2023/05/25 02:53:46;;;;;;;10.30;5.82;;;;;;;8.63;89.13;102532.19;4985018;28;20087;-96
2023/05/25 02:56:27;;;;;;;11.05;5.97;;;;;;;8.60;88.77;102531.09;4993734;28;20054;-96
2023/05/25 02:59:26;;;;;;;13.30;7.32;;;;;;;8.58;88.87;102531.03;4996746;28;20129;-96
2023/05/25 03:02:11;;;;;;;13.32;7.63;;;;;;;8.57;89.32;102533.53;4986933;28;20030;-96
2023/05/25 03:04:52;;;;;;;;;;;;;;;;;;;;;
2023/05/25 03:07:28;;;;;;;12.88;7.53;;;;;;;8.56;89.42;102526.53;4991955;28;20852;-96
2023/05/25 03:09:59;;;;;;;16.42;8.77;;;;;;;8.54;89.34;102529.03;4996117;28;20062;-96
2023/05/25 03:12:54;;;;;;;13.90;7.68;;;;;;;8.52;89.26;102535.84;4993874;28;20035;-96
2023/05/25 03:15:41;;;;;;;14.40;8.15;;;;;;;8.49;89.30;102541.75;4991676;28;20035;-96
2023/05/25 03:18:30;;;;;;;16.85;8.90;;;;;;;8.46;89.06;102545.91;5001401;28;20062;-96
2023/05/25 03:21:08;;;;;;;14.15;8.20;;;;;;;8.39;89.38;102544.59;4992517;28;20030;-96
2023/05/25 03:23:46;;;;;;;11.90;8.30;;;;;;;8.34;89.49;102551.19;4988879;28;20058;-96
2023/05/25 03:26:19;;;;;;;15.07;8.00;;;;;;;8.33;89.72;102555.50;5003590;28;20073;-96
2023/05/25 03:28:54;;;;;;;14.77;8.57;;;;;;;8.32;89.81;102558.00;4985628;28;20030;-96
2023/05/25 03:37:18;;;;;;;13.02;8.20;;;;;;;8.07;89.45;102576.41;5092987;23;20062;-65
2023/05/25 03:39:44;;;;;;;13.20;8.03;;;;;;;7.96;89.64;102570.53;5197863;23;20051;-65
2023/05/25 03:42:09;;;;;;;15.13;8.38;;;;;;;7.89;90.26;102577.03;5050601;23;20613;-65
2023/05/25 03:44:34;;;;;;;15.35;9.00;;;;;;;7.84;90.57;102578.44;5088660;23;20061;-64
2023/05/25 03:52:06;;;;;;;16.83;10.00;;;;;;;7.89;91.56;102581.31;5006016;23;20047;-64
2023/05/25 03:54:31;;;;;;;20.48;10.93;;;;;;;7.91;91.75;102590.13;5335005;23;20114;-64
2023/05/25 03:56:58;;;;;;;15.60;10.45;;;;;;;7.94;92.37;102590.31;4966867;28;20402;-64
2023/05/25 04:01:52;;;;;;;18.98;11.90;;;;;;;8.02;92.67;102596.84;4981024;28;20042;-65
2023/05/25 04:17:35;;;;;;;18.30;11.88;;;;;;;8.10;93.99;102592.16;5161320;23;20029;-64
2023/05/25 04:20:01;;;;;;;18.98;11.48;;;;;;;8.11;94.80;102596.53;4916772;23;20059;-64
2023/05/25 04:24:56;;;;;;;17.20;11.90;;;;;;;8.15;94.70;102595.91;4964089;28;20113;-64
2023/05/25 04:32:20;;;;;;;16.70;10.80;;;;;;;8.22;94.50;102607.59;5176515;23;20050;-64
2023/05/25 04:34:48;;;;;;;15.82;11.15;;;;;;;8.19;94.01;102603.09;5039937;23;20055;-96
2023/05/25 04:37:22;;;;;;;16.13;10.20;;;;;;;8.18;94.85;102604.81;4992320;28;20067;-96
2023/05/25 04:40:25;;;;;;;17.77;10.43;;;;;;;8.20;95.04;102604.91;5001975;28;20119;-96
2023/05/25 04:43:10;;;;;;;16.48;10.05;;;;;;;8.24;94.83;102605.97;4982737;28;20034;-96
2023/05/25 04:46:04;;;;;;;17.23;9.90;;;;;;;8.26;94.94;102605.28;4983197;28;20049;-96
2023/05/25 04:48:35;;;;;;;17.75;9.95;;;;;;;8.30;95.18;102607.25;4980759;28;20098;-96
2023/05/25 04:51:08;;;;;;;16.67;10.20;;;;;;;8.30;95.65;102607.25;4983937;28;20034;-96
2023/05/25 04:54:00;;;;;;;14.52;8.55;;;;;;;8.29;93.60;102609.75;4990632;28;20037;-96
2023/05/25 04:56:48;;;;;;;18.25;10.02;;;;;;;8.30;95.17;102604.66;4977741;28;20500;-96
2023/05/25 04:59:17;;;;;;;16.02;8.60;;;;;;;8.35;95.12;102616.22;4992988;28;20094;-96
2023/05/25 05:01:54;;;;;;;14.32;8.57;;;;;;;8.37;95.28;102616.31;4990064;28;20035;-96
2023/05/25 05:04:55;;;;;;;;;;;;;;;;;;;;;
2023/05/25 05:08:08;;;;;;;15.05;8.77;;;;;;;8.44;95.58;102623.69;4990492;28;20062;-96
2023/05/25 05:10:55;;;;;;;14.90;9.52;;;;;;;8.48;96.29;102624.81;4991886;28;20034;-96
2023/05/25 05:17:27;;;;;;;22.75;13.10;;;;;;;8.58;96.76;102624.56;4988876;28;20033;-95
2023/05/25 05:20:13;;;;;;;;;;;;;;;;;;;;;
2023/05/25 05:22:56;;;;;;;;;;;;;;;;;;;;;
2023/05/25 05:25:44;;;;;;;14.90;8.23;;;;;;;8.73;96.81;102619.38;4988321;28;20065;-96
2023/05/25 05:28:31;;;;;;;;;;;;;;;;;;;;;
2023/05/25 05:31:26;;;;;;;;;;;;;;;;;;;;;
2023/05/25 05:34:47;;;;;;;15.60;7.55;;;;;;;8.84;95.80;102639.09;4994081;28;20061;-96
2023/05/25 05:37:45;;;;;;;;;;;;;;;;;;;;;
2023/05/25 05:40:25;;;;;;;16.52;7.60;;;;;;;9.03;97.11;102640.22;4995132;28;20073;-96
2023/05/25 05:43:17;;;;;;;14.82;7.70;;;;;;;9.10;97.61;102637.16;4990894;28;20022;-96
2023/05/25 05:46:14;;;;;;;17.20;7.78;;;;;;;9.21;96.48;102641.28;4991875;28;20034;-96
2023/05/25 05:54:42;;;;;;;15.27;7.53;;;;;;;9.52;99.31;102657.78;5179332;23;20073;-64
2023/05/25 05:57:07;;;;;;;14.20;7.40;;;;;;;9.60;97.82;102658.19;5183691;23;20509;-64
2023/05/25 06:02:03;;;;;;;13.48;7.38;;;;;;;9.79;96.51;102665.34;5041435;23;20174;-64
2023/05/25 06:06:58;;;;;;;18.98;8.65;;;;;;;10.04;98.56;102675.44;5171409;23;20065;-64
2023/05/25 06:09:25;;;;;;;15.13;7.65;;;;;;;10.14;97.54;102671.59;5205296;23;20066;-64
2023/05/25 06:11:50;;;;;;;15.57;7.82;;;;;;;10.23;96.54;102672.13;4980260;28;20022;-64
2023/05/25 06:16:45;;;;;;;14.73;7.20;;;;;;;10.46;95.15;102676.00;5378787;23;20044;-64
2023/05/25 06:19:11;;;;;;;14.70;6.68;;;;;;;10.52;94.43;102676.31;5043833;23;20022;-64
2023/05/25 06:21:36;;;;;;;12.48;7.38;;;;;;;10.64;94.26;102683.00;5244878;23;20062;-65
2023/05/25 06:24:02;;;;;;;14.98;7.57;;;;;;;10.72;95.11;102679.09;5283666;23;20022;-64
2023/05/25 06:26:27;;;;;;;13.38;7.22;;;;;;;10.80;93.78;102680.38;4979677;28;20508;-65
2023/05/25 06:28:53;;;;;;;11.77;6.63;;;;;;;10.88;92.58;102686.91;4979919;28;20034;-64
2023/05/25 06:31:18;;;;;;;15.10;7.60;;;;;;;10.98;94.60;102677.84;5255560;23;20029;-64
2023/05/25 06:33:43;;;;;;;13.65;7.25;;;;;;;11.05;93.40;102684.25;5165679;23;20066;-64
2023/05/25 06:36:09;;;;;;;13.95;6.70;;;;;;;11.19;93.18;102687.59;5083074;23;20096;-64
2023/05/25 06:38:35;;;;;;;16.13;7.60;;;;;;;11.25;91.48;102691.41;5282994;23;20057;-64
2023/05/25 06:41:02;;;;;;;12.00;6.70;;;;;;;11.24;90.86;102692.22;5091924;23;20059;-64
2023/05/25 06:43:28;;;;;;;13.43;7.20;;;;;;;11.28;91.45;102693.25;5167003;23;20070;-64
2023/05/25 06:45:53;;;;;;;12.85;6.90;;;;;;;11.32;93.28;102695.19;4973023;28;20052;-64
2023/05/25 06:48:18;;;;;;;15.05;7.65;;;;;;;11.37;92.93;102703.25;5026023;23;20050;-64
2023/05/25 06:50:45;;;;;;;13.00;7.53;;;;;;;11.45;92.64;102704.53;5067718;23;20045;-64
2023/05/25 06:53:10;;;;;;;15.23;7.60;;;;;;;11.52;92.55;102708.38;5459895;23;20367;-64
2023/05/25 06:58:06;;;;;;;15.20;7.75;;;;;;;11.68;89.90;102696.97;5089595;23;20079;-95
2023/05/25 07:00:32;;;;;;;12.32;6.78;;;;;;;11.76;90.58;102699.13;4969213;28;20131;-96
2023/05/25 07:02:57;;;;;;;10.63;6.82;;;;;;;11.80;89.99;102694.94;4975707;28;20696;-96
2023/05/25 07:05:22;;;;;;;15.65;7.40;;;;;;;11.87;88.27;102691.78;4968758;28;20022;-95
2023/05/25 07:07:48;;;;;;;14.18;7.32;;;;;;;12.03;89.53;102698.69;4969875;28;20026;-96
2023/05/25 07:10:13;;;;;;;12.15;7.20;;;;;;;12.14;90.16;102704.44;4971877;28;20015;-96
2023/05/25 07:12:39;;;;;;;13.25;7.25;;;;;;;12.26;88.16;102709.34;4971356;28;20035;-96
2023/05/25 07:15:05;;;;;;;14.57;7.40;;;;;;;12.42;89.31;102710.94;4971019;28;20015;-95
2023/05/25 07:17:30;;;;;;;14.55;7.25;;;;;;;12.53;89.05;102712.34;4970424;28;20105;-95
2023/05/25 07:19:56;;;;;;;14.32;8.05;;;;;;;12.67;87.93;102713.84;4975973;28;20121;-95
2023/05/25 07:22:24;;;;;;;12.85;7.22;;;;;;;12.78;87.35;102716.06;4973776;28;20122;-95
2023/05/25 07:24:49;;;;;;;15.30;8.18;;;;;;;12.77;84.73;102716.88;4989505;28;20026;-94
2023/05/25 07:27:15;;;;;;;13.55;7.18;;;;;;;12.81;84.24;102714.47;4973901;28;20027;-96
2023/05/25 07:29:40;;;;;;;13.38;7.43;;;;;;;12.90;83.95;102721.81;4975130;28;20974;-95
2023/05/25 07:32:06;;;;;;;12.88;7.35;;;;;;;12.83;82.85;102720.66;4968640;28;20058;-96
2023/05/25 07:34:34;;;;;;;14.77;7.65;;;;;;;12.81;83.88;102724.91;4977106;28;20022;-96
2023/05/25 07:37:10;;;;;;;13.30;6.97;;;;;;;12.69;81.95;102729.63;4975201;28;20039;-96
2023/05/25 07:39:39;;;;;;;12.10;6.63;;;;;;;12.66;84.51;102719.91;4976846;28;20031;-95
2023/05/25 07:42:04;;;;;;;;;;;;;;;12.77;85.04;102724.72;4990668;28;20027;-95
2023/05/25 07:44:30;;;;;;;13.48;6.78;;;;;;;12.82;86.41;102723.22;4973469;28;20117;-96
2023/05/25 07:46:55;;;;;;;13.77;7.22;;;;;;;12.90;84.92;102727.06;4975956;28;20077;-96
2023/05/25 07:49:20;;;;;;;12.52;6.15;;;;;;;12.93;82.91;102724.56;4972955;28;20030;-96
2023/05/25 07:51:48;;;;;;;12.88;6.78;;;;;;;13.01;84.59;102722.31;4973340;28;20019;-96
2023/05/25 07:54:14;;;;;;;11.75;6.95;;;;;;;13.11;84.68;102732.34;4975797;28;20023;-95
2023/05/25 07:56:39;;;;;;;13.60;7.18;;;;;;;13.27;84.26;102722.53;4976785;28;20019;-96
2023/05/25 07:59:07;;;;;;;13.77;6.75;;;;;;;13.45;82.61;102725.94;4973403;28;20579;-94
2023/05/25 08:01:32;;;;;;;13.18;6.72;;;;;;;13.59;81.88;102725.66;4973516;28;20027;-95
2023/05/25 08:03:58;;;;;;;12.98;6.93;;;;;;;13.56;80.52;102724.69;4969338;28;20038;-95
2023/05/25 08:06:23;;;;;;;10.57;6.38;;;;;;;13.71;82.54;102719.16;4971671;28;20089;-95
2023/05/25 08:08:49;;;;;;;12.65;6.82;;;;;;;13.84;82.45;102719.69;4972296;28;20034;-95
2023/05/25 08:11:15;;;;;;;15.05;6.93;;;;;;;14.08;83.61;102720.66;4970664;28;20023;-94
2023/05/25 08:13:41;;;;;;;12.23;6.32;;;;;;;14.31;82.81;102727.63;4976241;28;20069;-95
2023/05/25 08:16:07;;;;;;;14.13;6.65;;;;;;;14.49;81.66;102730.06;4976244;28;20042;-94
2023/05/25 08:18:33;;;;;;;16.48;6.82;;;;;;;14.75;81.01;102729.31;4972657;28;20050;-95
2023/05/25 08:20:58;;;;;;;18.02;6.80;;;;;;;14.82;76.60;102732.19;4973325;28;20028;-94
2023/05/25 08:23:24;;;;;;;15.57;6.50;;;;;;;14.87;76.43;102744.63;4973520;28;20019;-95
2023/05/25 08:25:50;;;;;;;12.07;6.28;;;;;;;14.77;78.45;102739.88;4972558;28;20031;-95
2023/05/25 08:28:15;;;;;;;12.55;6.07;;;;;;;14.88;77.04;102743.78;4972319;28;20045;-95
2023/05/25 08:30:42;;;;;;;11.25;5.45;;;;;;;15.02;77.71;102736.44;4972100;28;20027;-95
2023/05/25 08:33:09;;;;;;;11.77;6.18;;;;;;;14.97;75.48;102737.09;4971899;28;20052;-95
2023/05/25 08:35:38;;;;;;;13.30;5.85;;;;;;;15.02;74.68;102732.88;4972458;28;20023;-95
2023/05/25 08:38:03;;;;;;;11.02;5.25;;;;;;;15.15;74.71;102726.34;4971949;28;20053;-96
2023/05/25 08:40:28;;;;;;;10.65;5.25;;;;;;;15.29;72.12;102739.13;4970740;28;20062;-95
2023/05/25 08:42:54;;;;;;;9.70;5.38;;;;;;;15.40;73.60;102744.75;4971833;28;20033;-95
2023/05/25 08:45:19;;;;;;;11.48;5.18;;;;;;;15.43;74.04;102739.59;4970106;28;20031;-96
2023/05/25 08:48:07;;;;;;;;;;;;;;;;;;;;;
2023/05/25 08:50:40;;;;;;;11.02;5.50;;;;;;;15.25;73.00;102739.88;4984850;28;20074;-96
2023/05/25 08:53:10;;;;;;;12.55;5.63;;;;;;;15.22;73.48;102738.84;4977296;28;20050;-96
2023/05/25 08:55:48;;;;;;;13.77;5.63;;;;;;;15.18;73.28;102743.13;4983317;28;20046;-96
2023/05/25 08:58:18;;;;;;;14.18;5.53;;;;;;;15.14;73.43;102746.47;4981469;28;20043;-96
2023/05/25 09:00:57;;;;;;;11.32;5.00;;;;;;;15.08;73.92;102744.53;4984418;28;20039;-96
2023/05/25 09:03:30;;;;;;;10.10;5.32;;;;;;;15.10;72.97;102748.06;4979478;28;20062;-96
2023/05/25 09:06:05;;;;;;;10.60;4.85;;;;;;;15.11;74.02;102752.50;4981563;28;20035;-96
2023/05/25 09:08:36;;;;;;;13.40;5.13;;;;;;;15.11;72.00;102754.25;4988563;28;20018;-96
2023/05/25 09:11:17;;;;;;;11.90;5.20;;;;;;;15.15;75.10;102755.22;4985391;28;20034;-96
2023/05/25 09:14:05;;;;;;;14.38;5.45;;;;;;;15.10;73.78;102753.31;4979273;28;20128;-96
2023/05/25 09:16:46;;;;;;;12.17;5.13;;;;;;;15.13;73.64;102749.94;4979928;28;20026;-96
2023/05/25 09:19:27;;;;;;;12.40;4.95;;;;;;;15.09;71.87;102758.53;4980900;28;20785;-96
2023/05/25 09:22:12;;;;;;;11.30;4.70;;;;;;;15.16;73.51;102751.78;4972681;28;20031;-96
2023/05/25 09:24:42;;;;;;;12.43;5.43;;;;;;;15.19;72.31;102749.25;4973370;28;20030;-96
2023/05/25 09:27:28;;;;;;;15.07;5.28;;;;;;;15.25;73.72;102749.47;4973611;28;20027;-96
2023/05/25 09:33:13;;;;;;;8.52;4.53;;;;;;;15.20;72.54;102756.28;4960224;28;20030;-96
2023/05/25 09:35:41;;;;;;;;;;;;;;;15.30;72.88;102759.28;4976676;28;20073;-96
2023/05/25 09:38:09;;;;;;;8.43;4.25;;;;;;;15.33;72.50;102757.63;4974938;28;19914;-96
2023/05/25 09:41:02;;;;;;;12.35;4.63;;;;;;;15.53;71.76;102766.19;4972053;28;20026;-96
2023/05/25 09:46:38;;;;;;;12.48;4.97;;;;;;;15.65;70.76;102761.34;4973265;28;20030;-96
2023/05/25 09:49:22;;;;;;;10.75;4.43;;;;;;;15.60;70.38;102763.81;4973351;28;20034;-96
2023/05/25 09:52:04;;;;;;;12.02;4.50;;;;;;;15.62;70.42;102767.38;4980229;28;20061;-96
2023/05/25 09:55:00;;;;;;;13.02;4.28;;;;;;;15.70;71.54;102769.38;5002930;28;20089;-96
2023/05/25 09:58:09;;;;;;;12.82;4.25;;;;;;;15.75;69.74;102765.16;4993560;28;20101;-96
2023/05/25 10:00:48;;;;;;;10.85;4.07;;;;;;;15.71;70.08;102760.66;4998450;28;20082;-96
2023/05/25 10:03:41;;;;;;;;;;;;;;;;;;;;;
2023/05/25 10:06:10;;;;;;;9.07;3.85;;;;;;;15.77;70.25;102761.75;4978182;28;20061;-96
2023/05/25 10:08:49;;;;;;;12.40;4.85;;;;;;;15.80;69.95;102766.22;4984852;28;20043;-96
2023/05/25 10:11:26;;;;;;;9.27;4.63;;;;;;;15.80;70.96;102767.16;4982873;28;20496;-96
2023/05/25 10:14:05;;;;;;;9.35;4.22;;;;;;;15.87;69.67;102765.59;4984354;28;20014;-96
2023/05/25 10:16:36;;;;;;;;;;;;;;;15.87;71.22;102764.72;4974815;28;20027;-96
2023/05/25 10:19:36;;;;;;;11.43;4.53;;;;;;;15.78;71.43;102767.91;4976903;28;19918;-96
2023/05/25 10:22:42;;;;;;;9.75;4.57;;;;;;;15.85;69.63;102766.41;4980256;28;20050;-96
2023/05/25 10:30:54;;;;;;;;;;;;;;;;;;;;;
2023/05/25 10:33:20;;;;;;;;;;;;;;;15.92;69.96;102768.41;5025857;23;20086;-65
2023/05/25 10:35:48;;;;;;;12.25;5.00;;;;;;;15.84;67.93;102772.50;5237606;23;20017;-66
2023/05/25 10:43:20;;;;;;;8.02;4.60;;;;;;;15.92;68.60;102765.78;5181576;23;20121;-65
2023/05/25 10:45:46;;;;;;;12.75;5.10;;;;;;;16.05;67.68;102781.09;5157705;23;20062;-66
2023/05/25 10:50:50;;;;;;;12.68;4.55;;;;;;;16.00;65.96;102764.25;4977659;23;20061;-66
2023/05/25 10:53:19;;;;;;;10.50;4.47;;;;;;;16.09;66.18;102767.19;5369110;23;20125;-65
2023/05/25 10:55:51;;;;;;;12.52;4.90;;;;;;;16.19;66.27;102773.63;5177239;23;20066;-65
2023/05/25 11:02:22;;;;;;;9.10;3.90;;;;;;;16.41;66.68;102777.81;4936971;29;20044;-96
2023/05/25 11:07:20;;;;;;;11.32;4.53;;;;;;;16.86;68.88;102769.50;4872308;23;20058;-66
2023/05/25 11:12:21;;;;;;;11.52;4.53;;;;;;;17.54;66.50;102757.28;5139354;23;20426;-67
2023/05/25 11:15:13;;;;;;;10.02;4.05;;;;;;;17.76;65.02;102753.44;5107147;23;20057;-66
2023/05/25 11:26:41;;;;;;;10.55;4.68;;;;;;;17.17;62.69;102773.00;4970168;28;20051;-96
2023/05/25 11:29:55;;;;;;;11.43;4.90;;;;;;;16.85;61.56;102762.44;4977103;28;21081;-96
2023/05/25 11:32:21;;;;;;;9.98;4.85;;;;;;;16.80;62.02;102766.69;5008689;23;20063;-67
2023/05/25 11:40:07;;;;;;;;;;;;;;;17.25;63.08;102738.97;5057723;23;20055;-96
2023/05/25 11:42:41;;;;;;;10.18;4.85;;;;;;;17.80;63.77;102736.84;4986715;28;19922;-96
2023/05/25 11:45:36;;;;;;;9.82;5.03;;;;;;;17.82;56.19;102732.47;4987677;28;20038;-96
2023/05/25 11:48:23;;;;;;;;;;;;;;;;;;;;;
2023/05/25 11:51:08;;;;;;;9.90;4.88;;;;;;;17.75;62.93;102729.69;4988185;28;20054;-96
2023/05/25 11:54:03;;;;;;;10.93;5.45;;;;;;;17.84;63.07;102735.16;4967775;28;20098;-96
2023/05/25 11:56:35;;;;;;;10.38;5.32;;;;;;;17.75;60.16;102729.69;4964725;28;20035;-96
2023/05/25 11:59:06;;;;;;;10.40;5.07;;;;;;;17.64;62.30;102732.03;4965325;28;20414;-96
2023/05/25 12:01:50;;;;;;;12.40;5.57;;;;;;;17.59;63.08;102731.03;4964597;28;20027;-96
2023/05/25 12:04:29;;;;;;;11.35;5.28;;;;;;;17.54;61.61;102726.53;4960985;28;20067;-96
2023/05/25 12:07:08;;;;;;;20.23;13.75;;;;;;;17.49;60.72;102729.91;4961851;28;20030;-96
2023/05/25 12:09:36;;;;;;;12.23;8.73;;;;;;;17.44;60.85;102723.63;4966807;28;20043;-96
2023/05/25 12:12:05;;;;;;;11.20;5.90;;;;;;;17.44;61.59;102728.88;4964737;28;20029;-96
2023/05/25 12:14:37;;;;;;;;;;;;;;;17.58;62.08;102721.34;4964754;28;20498;-96
2023/05/25 12:17:19;;;;;;;9.23;5.10;;;;;;;17.50;63.09;102723.81;4963353;28;19988;-96
2023/05/25 12:19:46;;;;;;;12.18;5.70;;;;;;;17.38;60.53;102713.84;4968006;28;20074;-96
2023/05/25 12:22:19;;;;;;;12.45;5.70;;;;;;;17.37;62.25;102710.28;4967050;28;20045;-96
2023/05/25 12:24:48;;;;;;;11.05;5.55;;;;;;;17.76;64.65;102716.53;4980206;28;20035;-96
2023/05/25 12:27:18;;;;;;;10.67;5.30;;;;;;;18.28;61.66;102702.75;4972607;28;20050;-96
2023/05/25 12:29:52;;;;;;;8.93;5.57;;;;;;;18.46;59.71;102700.50;5072205;23;20306;-96
2023/05/25 12:32:34;;;;;;;12.45;5.63;;;;;;;18.57;59.63;102703.38;4993133;28;20047;-96
2023/05/25 12:35:07;;;;;;;12.88;6.97;;;;;;;18.42;58.30;102703.94;4981822;28;20148;-96
2023/05/25 12:37:37;;;;;;;13.85;6.70;;;;;;;18.15;56.98;102710.41;4980492;28;20062;-96
2023/05/25 12:40:16;;;;;;;11.18;5.90;;;;;;;17.96;59.58;102709.13;4980508;28;20035;-96
2023/05/25 12:43:02;;;;;;;12.37;6.07;;;;;;;18.10;59.57;102701.50;4976044;28;20054;-96
2023/05/25 12:45:30;;;;;;;12.45;6.10;;;;;;;18.27;58.55;102701.00;4993002;28;20384;-96
2023/05/25 12:48:02;;;;;;;10.65;5.82;;;;;;;18.17;58.98;102698.13;4976012;28;20034;-96
2023/05/25 12:50:31;;;;;;;8.80;5.60;;;;;;;18.11;60.48;102703.28;4983529;28;20023;-96
2023/05/25 12:53:22;;;;;;;10.27;5.97;;;;;;;18.17;60.24;102700.78;4988667;28;20034;-96
2023/05/25 13:01:37;;;;;;;8.25;5.32;;;;;;;18.25;60.86;102695.69;5296746;23;20059;-65
2023/05/25 13:04:02;;;;;;;9.98;6.25;;;;;;;18.24;58.59;102699.16;5166384;23;20336;-65
2023/05/25 13:06:30;;;;;;;9.88;6.00;;;;;;;18.30;58.55;102691.38;5123445;23;20052;-65
2023/05/25 13:11:28;;;;;;;10.60;5.90;;;;;;;18.63;57.06;102703.50;5384560;23;20059;-65
2023/05/25 13:13:53;;;;;;;9.95;4.80;;;;;;;18.66;59.45;102698.28;4951992;28;20038;-65
2023/05/25 13:16:19;;;;;;;10.23;5.47;;;;;;;18.66;58.13;102692.13;5310654;23;20807;-63
2023/05/25 13:24:18;;;;;;;12.43;6.15;;;;;;;18.12;58.86;102678.69;5009435;23;20038;-96
2023/05/25 13:29:28;;;;;;;9.15;4.82;;;;;;;18.27;59.63;102686.03;5044632;23;20062;-65
2023/05/25 13:31:53;;;;;;;10.50;5.22;;;;;;;18.33;58.68;102678.25;5253125;23;20067;-64
2023/05/25 13:34:21;;;;;;;7.75;4.63;;;;;;;18.38;60.21;102670.44;5403184;23;20072;-64
2023/05/25 13:39:22;;;;;;;10.63;5.03;;;;;;;18.46;55.77;102678.50;5064498;23;20059;-65
2023/05/25 13:41:47;;;;;;;11.60;5.35;;;;;;;18.51;59.66;102677.75;5058660;23;20074;-65
2023/05/25 13:44:13;;;;;;;9.35;6.03;;;;;;;18.52;58.51;102682.16;5235079;23;20042;-65
2023/05/25 13:51:49;;;;;;;11.98;4.80;;;;;;;18.73;58.20;102675.53;5109649;23;20066;-65
2023/05/25 13:54:18;;;;;;;8.98;5.05;;;;;;;18.80;57.82;102674.78;5340384;23;20058;-64
2023/05/25 13:56:44;;;;;;;9.13;4.85;;;;;;;18.68;57.21;102669.25;5180351;23;20060;-65
2023/05/25 13:59:09;;;;;;;11.50;6.10;;;;;;;18.54;55.85;102680.44;5401522;23;20332;-64
2023/05/25 14:01:35;;;;;;;13.60;6.00;;;;;;;18.45;57.56;102672.34;5079704;22;21125;-64
2023/05/25 14:06:48;;;;;;;9.75;5.10;;;;;;;18.84;56.99;102665.16;5012400;23;20133;-96
2023/05/25 14:09:26;;;;;;;9.45;5.90;;;;;;;19.19;56.79;102657.00;4972740;28;20046;-96
2023/05/25 14:11:57;;;;;;;9.80;5.63;;;;;;;19.55;56.37;102654.06;4975500;28;20023;-96
2023/05/25 14:14:38;;;;;;;7.75;4.65;;;;;;;19.68;53.88;102659.53;4993404;28;20133;-96
2023/05/25 14:17:25;;;;;;;8.98;4.60;;;;;;;19.54;54.28;102657.56;4975620;28;20035;-96
2023/05/25 14:20:08;;;;;;;8.93;4.78;;;;;;;19.36;52.07;102662.56;4991909;28;20038;-96
2023/05/25 14:22:44;;;;;;;10.65;4.95;;;;;;;19.34;53.16;102657.25;4990187;28;20146;-96
2023/05/25 14:28:11;;;;;;;8.93;5.07;;;;;;;19.35;55.39;102658.13;4970187;28;20034;-96
2023/05/25 14:30:40;;;;;;;8.87;5.20;;;;;;;19.33;53.71;102657.22;4987904;28;20090;-96
2023/05/25 14:33:13;;;;;;;10.25;6.03;;;;;;;19.30;54.30;102658.06;4976723;28;20050;-96
2023/05/25 14:35:42;;;;;;;10.88;5.35;;;;;;;19.26;53.25;102664.16;4972398;28;20046;-96